Time;durP1;ratioP1;P1;durP2;ratioP2;P2;SDS_P1;SDS_P2;PMS_P1;PMS_P2;Temp;Humidity;BMP_temperature;BMP_pressure;BME280_temperature;BME280_humidity;BME280_pressure;Samples;Min_cycle;Max_cycle;Signal;HPM_P1;HPM_P2
2022/04/27 00:01:33;;;;;;;8.80;8.53;;;23.60;51.10;;;;;;5072610;28;20810;-45
2022/04/27 00:03:59;;;;;;;8.73;8.43;;;23.60;51.20;;;;;;5072246;28;20809;-44
2022/04/27 00:06:26;;;;;;;8.70;8.50;;;23.60;51.30;;;;;;5072320;28;20463;-44
2022/04/27 00:08:53;;;;;;;8.60;8.30;;;23.60;51.30;;;;;;5072383;28;20448;-44
2022/04/27 00:11:20;;;;;;;8.70;8.50;;;23.50;51.30;;;;;;5072469;28;20451;-44
2022/04/27 00:13:46;;;;;;;9.50;9.20;;;23.50;51.30;;;;;;5072191;28;20444;-44
2022/04/27 00:16:13;;;;;;;8.40;8.20;;;23.40;51.30;;;;;;5072302;28;20838;-44
2022/04/27 00:18:41;;;;;;;8.50;8.30;;;23.40;51.40;;;;;;5072071;28;20526;-46
2022/04/27 00:21:08;;;;;;;8.80;8.50;;;23.40;51.50;;;;;;5072367;28;20490;-45
2022/04/27 00:23:35;;;;;;;8.50;8.30;;;23.40;51.60;;;;;;5071969;28;20448;-43
2022/04/27 00:26:01;;;;;;;9.27;9.00;;;23.40;51.50;;;;;;5071931;28;20550;-44
2022/04/27 00:28:28;;;;;;;8.90;8.60;;;23.50;51.50;;;;;;5072050;28;20447;-44
2022/04/27 00:30:55;;;;;;;8.23;8.03;;;23.50;51.40;;;;;;5071875;28;20479;-44
2022/04/27 00:33:22;;;;;;;8.23;8.03;;;23.60;51.30;;;;;;5072033;28;20466;-43
2022/04/27 00:35:51;;;;;;;8.43;8.23;;;23.60;51.20;;;;;;5071762;28;20509;-45
2022/04/27 00:38:17;;;;;;;8.20;8.00;;;23.60;51.10;;;;;;5071764;28;20451;-44
2022/04/27 00:40:44;;;;;;;9.37;9.07;;;23.60;51.00;;;;;;5071935;28;20476;-43
2022/04/27 00:43:13;;;;;;;10.10;9.50;;;23.60;51.00;;;;;;5071996;28;20795;-43
2022/04/27 00:45:40;;;;;;;8.40;8.20;;;23.60;51.00;;;;;;5071986;28;20865;-42
2022/04/27 00:48:09;;;;;;;8.57;8.20;;;23.60;51.00;;;;;;5071668;28;20444;-42
2022/04/27 00:50:36;;;;;;;9.10;8.80;;;23.60;51.00;;;;;;5071923;28;20451;-42
2022/04/27 00:53:04;;;;;;;8.60;8.40;;;23.60;51.10;;;;;;5071839;28;20439;-42
2022/04/27 00:55:31;;;;;;;8.10;7.90;;;23.60;51.10;;;;;;5071554;28;20471;-43
2022/04/27 00:57:59;;;;;;;9.63;9.13;;;23.50;51.10;;;;;;5071553;28;20443;-42
2022/04/27 01:00:26;;;;;;;8.80;8.60;;;23.50;51.10;;;;;;5071633;28;21023;-42
2022/04/27 01:02:53;;;;;;;8.70;8.20;;;23.50;51.10;;;;;;5070724;28;20451;-42
2022/04/27 01:05:21;;;;;;;8.90;8.70;;;23.50;51.20;;;;;;5071352;28;20554;-43
2022/04/27 01:07:48;;;;;;;9.47;9.17;;;23.40;51.20;;;;;;5071448;28;20471;-43
2022/04/27 01:10:17;;;;;;;8.40;8.20;;;23.40;51.30;;;;;;5071660;28;20440;-43
2022/04/27 01:12:44;;;;;;;8.47;8.27;;;23.30;51.30;;;;;;5071637;28;20929;-43
2022/04/27 01:15:11;;;;;;;8.93;8.73;;;23.30;51.30;;;;;;5071165;28;20471;-42
2022/04/27 01:17:38;;;;;;;8.67;8.47;;;23.30;51.40;;;;;;5071401;28;20470;-42
2022/04/27 01:20:06;;;;;;;8.50;8.20;;;23.20;51.40;;;;;;5071476;28;20487;-43
2022/04/27 01:22:34;;;;;;;8.40;8.10;;;23.20;51.60;;;;;;5071503;28;20990;-43
2022/04/27 01:25:01;;;;;;;8.50;8.20;;;23.20;51.40;;;;;;5071305;28;20474;-42
2022/04/27 01:27:28;;;;;;;8.67;8.47;;;23.30;51.30;;;;;;5071277;28;20936;-43
2022/04/27 01:29:55;;;;;;;8.97;8.67;;;23.40;51.20;;;;;;5071406;28;20436;-42
2022/04/27 01:32:22;;;;;;;8.70;8.50;;;23.50;51.10;;;;;;5071410;28;20439;-43
2022/04/27 01:34:49;;;;;;;8.00;7.80;;;23.50;51.00;;;;;;5071107;28;20613;-43
2022/04/27 01:40:01;;;;;;;8.60;8.40;;;23.50;50.80;;;;;;5071449;28;20633;-42
2022/04/27 01:42:28;;;;;;;8.77;8.47;;;23.50;50.80;;;;;;5071165;28;20949;-42
2022/04/27 01:44:55;;;;;;;9.60;9.30;;;23.50;50.80;;;;;;5071085;28;20478;-43
2022/04/27 01:47:21;;;;;;;9.03;8.73;;;23.50;50.80;;;;;;5071228;28;20451;-42
2022/04/27 01:49:48;;;;;;;8.10;7.90;;;23.50;50.90;;;;;;5071277;28;20442;-42
2022/04/27 01:55:03;;;;;;;8.67;8.37;;;23.40;50.80;;;;;;5045079;28;20446;-43
2022/04/27 01:57:30;;;;;;;9.83;9.53;;;23.40;51.40;;;;;;5070749;28;20435;-42
2022/04/27 01:59:58;;;;;;;8.77;8.47;;;23.30;51.00;;;;;;5070930;28;20488;-42
2022/04/27 02:02:25;;;;;;;8.40;8.10;;;23.30;51.00;;;;;;5070942;28;20452;-42
2022/04/27 02:04:51;;;;;;;9.30;9.00;;;23.30;51.00;;;;;;5071003;28;20474;-42
2022/04/27 02:07:18;;;;;;;8.87;8.67;;;23.30;51.00;;;;;;5070826;28;20795;-42
2022/04/27 02:09:45;;;;;;;8.20;8.00;;;23.40;51.00;;;;;;5071078;28;20436;-42
2022/04/27 02:12:13;;;;;;;8.37;8.17;;;23.50;50.90;;;;;;5070743;28;20826;-43
2022/04/27 02:14:39;;;;;;;9.13;8.83;;;23.50;50.70;;;;;;5072002;28;20475;-42
2022/04/27 02:17:06;;;;;;;8.47;8.27;;;23.50;50.60;;;;;;5074567;28;20446;-43
2022/04/27 02:19:33;;;;;;;8.83;8.53;;;23.60;50.50;;;;;;5074592;28;20447;-43
2022/04/27 02:22:00;;;;;;;8.47;8.17;;;23.50;50.40;;;;;;5074577;28;20524;-42
2022/04/27 02:24:27;;;;;;;8.27;8.07;;;23.50;50.40;;;;;;5074334;28;20447;-42
2022/04/27 02:26:54;;;;;;;9.17;8.93;;;23.50;50.40;;;;;;5074332;28;20451;-42
2022/04/27 02:29:23;;;;;;;8.13;7.93;;;23.50;50.50;;;;;;5074328;28;20505;-42
2022/04/27 02:31:50;;;;;;;8.53;8.23;;;23.50;50.50;;;;;;5074426;28;20443;-43
2022/04/27 02:34:17;;;;;;;8.20;8.00;;;23.50;50.60;;;;;;5074031;28;20818;-42
2022/04/27 02:36:44;;;;;;;7.97;7.77;;;23.50;50.60;;;;;;5074148;28;20447;-45
2022/04/27 02:39:11;;;;;;;8.77;8.57;;;23.40;50.60;;;;;;5074366;28;20788;-42
2022/04/27 02:41:37;;;;;;;8.80;8.50;;;23.40;50.60;;;;;;5074153;28;20479;-42
2022/04/27 02:44:04;;;;;;;8.70;8.40;;;23.40;50.70;;;;;;5073882;28;20455;-42
2022/04/27 02:46:32;;;;;;;8.90;8.60;;;23.30;50.70;;;;;;5073846;28;20503;-43
2022/04/27 02:51:51;;;;;;;8.47;8.27;;;23.30;50.80;;;;;;5073826;28;20450;-42
2022/04/27 02:54:18;;;;;;;9.60;9.30;;;23.20;50.80;;;;;;5074068;28;20466;-42
2022/04/27 02:56:45;;;;;;;8.30;8.10;;;23.20;50.90;;;;;;5073835;28;20447;-43
2022/04/27 02:59:12;;;;;;;8.40;8.20;;;23.20;51.00;;;;;;5073887;28;20440;-42
2022/04/27 03:01:40;;;;;;;8.57;8.27;;;23.10;51.00;;;;;;5073376;28;20479;-42
2022/04/27 03:04:07;;;;;;;8.27;7.97;;;23.10;51.00;;;;;;5073790;28;20447;-42
2022/04/27 03:06:34;;;;;;;9.10;8.90;;;23.10;51.10;;;;;;5073652;28;20929;-42
2022/04/27 03:09:01;;;;;;;8.80;8.60;;;23.00;51.20;;;;;;5073624;28;20439;-42
2022/04/27 03:11:28;;;;;;;8.60;8.40;;;23.00;51.30;;;;;;5073408;28;20948;-42
2022/04/27 03:13:55;;;;;;;8.67;8.47;;;23.00;51.40;;;;;;5073777;28;20451;-42
2022/04/27 03:16:21;;;;;;;8.50;8.30;;;23.10;51.30;;;;;;5073268;28;20478;-42
2022/04/27 03:18:49;;;;;;;8.80;8.47;;;23.20;51.20;;;;;;5073478;28;20468;-43
2022/04/27 03:21:16;;;;;;;8.87;8.60;;;23.30;51.00;;;;;;5073193;28;20482;-42
2022/04/27 03:23:43;;;;;;;9.63;9.40;;;23.30;50.80;;;;;;5073488;28;20450;-42
2022/04/27 03:26:10;;;;;;;9.07;8.80;;;23.40;50.80;;;;;;5071807;28;20483;-42
2022/04/27 03:28:37;;;;;;;9.13;8.93;;;23.40;50.80;;;;;;5073086;28;20477;-42
2022/04/27 03:31:03;;;;;;;9.03;8.77;;;23.40;50.80;;;;;;5072834;28;20442;-45
2022/04/27 03:33:30;;;;;;;10.03;9.73;;;23.40;50.80;;;;;;5073035;28;20452;-42
2022/04/27 03:35:58;;;;;;;8.97;8.50;;;23.40;50.80;;;;;;5073120;28;20459;-42
2022/04/27 03:38:25;;;;;;;9.00;8.80;;;23.40;50.80;;;;;;5072944;28;20447;-42
2022/04/27 03:40:52;;;;;;;9.70;9.40;;;23.30;50.90;;;;;;5072703;28;20479;-42
2022/04/27 03:43:19;;;;;;;9.60;9.30;;;23.30;50.90;;;;;;5072941;28;20447;-43
2022/04/27 03:45:46;;;;;;;10.63;10.13;;;23.30;50.90;;;;;;5072751;28;21065;-42
2022/04/27 03:48:13;;;;;;;9.30;9.10;;;23.40;50.90;;;;;;5072691;28;20443;-42
2022/04/27 03:50:40;;;;;;;9.73;9.43;;;23.40;50.80;;;;;;5072660;28;20648;-43
2022/04/27 03:53:09;;;;;;;9.40;9.10;;;23.50;50.70;;;;;;5072819;28;20447;-42
2022/04/27 03:55:36;;;;;;;9.47;9.17;;;23.50;50.50;;;;;;5072691;28;20463;-42
2022/04/27 03:58:03;;;;;;;9.87;9.47;;;23.60;50.40;;;;;;5072415;28;20450;-44
2022/04/27 04:00:30;;;;;;;9.80;9.40;;;23.60;50.30;;;;;;5072636;28;20479;-43
2022/04/27 04:02:59;;;;;;;10.27;9.60;;;23.70;50.10;;;;;;5072633;28;20444;-43
2022/04/27 04:05:25;;;;;;;11.20;10.10;;;23.70;50.50;;;;;;5072569;28;20999;-42
2022/04/27 04:07:52;;;;;;;11.37;10.77;;;23.80;51.60;;;;;;5072083;28;20451;-45
2022/04/27 04:10:20;;;;;;;20.30;12.50;;;23.90;52.80;;;;;;5072443;28;20447;-42
2022/04/27 04:12:47;;;;;;;11.80;11.10;;;24.00;54.90;;;;;;5072456;28;20443;-42
2022/04/27 04:15:14;;;;;;;12.90;11.63;;;24.10;56.80;;;;;;5072391;28;20466;-43
2022/04/27 04:17:45;;;;;;;15.57;14.30;;;24.10;61.80;;;;;;5062956;28;20440;-44
2022/04/27 04:20:13;;;;;;;15.57;13.40;;;24.20;61.30;;;;;;5079411;28;20443;-43
2022/04/27 04:22:40;;;;;;;13.90;12.80;;;24.20;64.50;;;;;;5071543;28;20470;-44
2022/04/27 04:30:46;;;;;;;16.27;12.17;;;24.50;59.60;;;;;;5036020;28;20521;-43
2022/04/27 04:33:13;;;;;;;13.53;12.23;;;24.60;58.30;;;;;;5071931;28;20447;-46
2022/04/27 04:35:40;;;;;;;14.97;13.20;;;24.60;57.40;;;;;;5071973;28;20495;-44
2022/04/27 04:38:06;;;;;;;14.77;13.40;;;24.60;56.90;;;;;;5071583;28;20450;-44
2022/04/27 04:40:33;;;;;;;12.70;11.47;;;24.70;56.30;;;;;;5071773;28;20484;-44
2022/04/27 04:43:02;;;;;;;12.40;11.60;;;24.70;55.60;;;;;;5071851;28;20448;-44
2022/04/27 04:45:28;;;;;;;14.93;11.60;;;24.70;55.20;;;;;;5071687;28;20471;-44
2022/04/27 04:47:55;;;;;;;12.80;11.67;;;24.70;54.60;;;;;;5071591;28;20975;-44
2022/04/27 04:50:22;;;;;;;15.17;13.03;;;24.70;54.40;;;;;;5071783;28;20941;-44
2022/04/27 04:52:49;;;;;;;12.80;11.60;;;24.70;54.00;;;;;;5071764;28;20948;-44
2022/04/27 04:55:16;;;;;;;13.07;12.07;;;24.70;53.80;;;;;;5071694;28;20459;-45
2022/04/27 04:57:43;;;;;;;11.73;10.90;;;24.70;53.50;;;;;;5071534;28;20448;-44
2022/04/27 05:00:12;;;;;;;12.40;11.60;;;24.70;53.50;;;;;;5071915;28;20813;-45
2022/04/27 05:02:39;;;;;;;12.93;12.07;;;24.60;53.10;;;;;;5071769;28;20440;-45
2022/04/27 05:05:07;;;;;;;12.90;12.00;;;24.60;53.10;;;;;;5071614;28;20839;-46
2022/04/27 05:07:35;;;;;;;13.03;12.03;;;24.60;52.90;;;;;;5071351;28;20440;-45
2022/04/27 05:10:02;;;;;;;13.73;12.80;;;24.50;52.80;;;;;;5071523;28;20940;-45
2022/04/27 05:12:29;;;;;;;13.10;12.20;;;24.50;52.80;;;;;;5071485;28;20447;-46
2022/04/27 05:14:56;;;;;;;13.10;12.30;;;24.50;52.60;;;;;;5071427;28;20475;-48
2022/04/27 05:17:24;;;;;;;13.20;12.30;;;24.40;52.50;;;;;;5071322;28;20448;-44
2022/04/27 05:19:52;;;;;;;11.33;10.73;;;24.40;52.50;;;;;;5071504;28;20458;-46
2022/04/27 05:22:19;;;;;;;13.00;12.30;;;24.40;52.50;;;;;;5071325;28;20483;-45
2022/04/27 05:24:45;;;;;;;13.00;12.47;;;24.30;52.30;;;;;;5071475;28;20467;-47
2022/04/27 05:27:12;;;;;;;12.77;11.87;;;24.30;52.30;;;;;;5071160;28;20456;-46
2022/04/27 05:32:27;;;;;;;12.23;11.73;;;24.30;52.30;;;;;;5071388;28;20438;-44
2022/04/27 05:34:54;;;;;;;11.47;10.83;;;24.20;52.10;;;;;;5071238;28;20521;-44
2022/04/27 05:37:21;;;;;;;12.40;11.60;;;24.20;52.20;;;;;;5070971;28;20451;-44
2022/04/27 05:39:48;;;;;;;11.10;10.50;;;24.20;52.20;;;;;;5071262;28;20702;-44
2022/04/27 05:42:14;;;;;;;12.37;11.67;;;24.10;52.10;;;;;;5071103;28;20479;-44
2022/04/27 05:44:41;;;;;;;11.47;10.83;;;24.10;52.10;;;;;;5070969;28;20475;-45
2022/04/27 05:47:08;;;;;;;11.67;10.97;;;24.10;52.10;;;;;;5071034;28;20454;-44
2022/04/27 05:49:36;;;;;;;13.57;12.50;;;24.10;52.20;;;;;;5072321;28;20443;-44
2022/04/27 05:52:03;;;;;;;11.50;10.80;;;24.00;52.20;;;;;;5075148;28;20466;-44
2022/04/27 05:54:30;;;;;;;11.23;10.40;;;24.00;52.20;;;;;;5074848;28;20474;-44
2022/04/27 05:56:56;;;;;;;11.77;11.23;;;23.90;52.00;;;;;;5074787;28;20439;-44
2022/04/27 05:59:23;;;;;;;11.60;10.90;;;23.90;52.10;;;;;;5074836;28;20948;-46
2022/04/27 06:01:50;;;;;;;11.23;10.77;;;24.00;52.10;;;;;;5074862;28;20486;-44
2022/04/27 06:04:17;;;;;;;14.67;13.73;;;24.00;52.00;;;;;;5074836;28;20450;-44
2022/04/27 06:06:45;;;;;;;11.37;10.87;;;24.10;51.80;;;;;;5074617;28;20454;-44
2022/04/27 06:09:13;;;;;;;11.00;10.10;;;24.20;51.70;;;;;;5074564;28;20455;-49
2022/04/27 06:11:40;;;;;;;11.97;11.20;;;24.20;51.50;;;;;;5074701;28;20474;-44
2022/04/27 06:14:06;;;;;;;11.57;10.67;;;24.30;51.40;;;;;;5074605;28;20450;-45
2022/04/27 06:16:34;;;;;;;11.37;10.97;;;24.30;51.20;;;;;;5074355;28;20474;-44
2022/04/27 06:19:01;;;;;;;11.70;11.20;;;24.40;51.00;;;;;;5074617;28;20836;-44
2022/04/27 06:21:31;;;;;;;10.57;10.07;;;24.40;50.90;;;;;;5074471;28;20490;-44
2022/04/27 06:24:00;;;;;;;10.00;9.60;;;24.50;50.80;;;;;;5074421;28;20454;-48
2022/04/27 06:26:27;;;;;;;10.87;10.47;;;24.50;50.60;;;;;;5074266;28;20517;-44
2022/04/27 06:28:54;;;;;;;10.90;10.40;;;24.60;50.60;;;;;;5074422;28;20947;-45
2022/04/27 06:31:20;;;;;;;9.67;9.27;;;24.60;50.50;;;;;;5074627;28;20431;-47
2022/04/27 06:33:47;;;;;;;11.40;10.90;;;24.60;50.30;;;;;;5074380;28;20454;-44
2022/04/27 06:36:14;;;;;;;11.37;10.87;;;24.60;50.30;;;;;;5074206;28;20474;-44
2022/04/27 06:38:40;;;;;;;11.00;10.57;;;24.60;50.20;;;;;;5074004;28;20439;-44
2022/04/27 06:41:09;;;;;;;10.93;10.43;;;24.60;50.20;;;;;;5074041;28;20479;-45
2022/04/27 06:43:35;;;;;;;11.10;10.70;;;24.60;50.20;;;;;;5074093;28;20497;-44
2022/04/27 06:46:02;;;;;;;11.20;10.63;;;24.60;50.10;;;;;;5086410;22;20503;-45
2022/04/27 06:48:30;;;;;;;10.37;9.67;;;24.60;50.10;;;;;;5053788;28;20459;-46
2022/04/27 06:50:56;;;;;;;10.70;10.30;;;24.60;50.00;;;;;;5054107;28;20452;-46
2022/04/27 06:53:23;;;;;;;11.50;11.10;;;24.60;50.10;;;;;;5053953;28;20451;-46
2022/04/27 06:55:50;;;;;;;10.33;9.93;;;24.60;50.00;;;;;;5054022;28;20468;-46
2022/04/27 06:58:18;;;;;;;10.77;10.37;;;24.50;50.00;;;;;;5053691;28;20451;-47
2022/04/27 07:00:45;;;;;;;11.47;10.80;;;24.50;50.00;;;;;;5053799;28;20447;-45
2022/04/27 07:03:12;;;;;;;10.73;10.33;;;24.50;50.00;;;;;;5053753;28;20511;-46
2022/04/27 07:05:39;;;;;;;10.23;9.73;;;24.50;50.10;;;;;;5053643;28;20464;-45
2022/04/27 07:08:06;;;;;;;11.20;10.60;;;24.50;50.10;;;;;;5053442;28;20448;-46
2022/04/27 07:10:36;;;;;;;11.67;10.97;;;24.50;50.10;;;;;;5053655;28;20444;-46
2022/04/27 07:13:04;;;;;;;10.93;10.53;;;24.50;50.10;;;;;;5053753;28;20871;-46
2022/04/27 07:15:33;;;;;;;10.77;10.37;;;24.50;50.10;;;;;;5053562;28;20464;-45
2022/04/27 07:17:59;;;;;;;10.90;10.40;;;24.40;50.10;;;;;;5053298;28;20793;-46
2022/04/27 07:20:26;;;;;;;10.00;9.50;;;24.40;50.10;;;;;;5053553;28;20786;-45
2022/04/27 07:22:53;;;;;;;10.70;10.20;;;24.40;50.10;;;;;;5053307;28;20953;-45
2022/04/27 07:25:20;;;;;;;10.17;9.87;;;24.30;50.10;;;;;;5053240;28;20461;-46
2022/04/27 07:27:46;;;;;;;9.93;9.47;;;24.30;50.20;;;;;;5053134;28;20955;-45
2022/04/27 07:30:13;;;;;;;9.93;9.63;;;24.30;50.20;;;;;;5053472;28;20824;-45
2022/04/27 07:32:42;;;;;;;10.60;10.10;;;24.20;50.20;;;;;;5053232;28;20501;-45
2022/04/27 07:35:09;;;;;;;9.87;9.47;;;24.20;50.30;;;;;;5053273;28;20476;-46
2022/04/27 07:37:37;;;;;;;9.67;9.37;;;24.20;50.30;;;;;;5052887;28;20448;-46
2022/04/27 07:40:07;;;;;;;10.83;10.53;;;24.20;50.30;;;;;;5053244;28;20506;-46
2022/04/27 07:42:34;;;;;;;10.80;10.50;;;24.30;50.30;;;;;;5052964;28;20487;-46
2022/04/27 07:45:00;;;;;;;10.20;9.90;;;24.30;50.20;;;;;;5052769;28;20479;-46
2022/04/27 07:47:27;;;;;;;10.43;10.03;;;24.30;50.10;;;;;;5052803;28;20809;-46
2022/04/27 07:49:55;;;;;;;10.40;10.00;;;24.40;50.10;;;;;;5052972;28;20814;-45
2022/04/27 07:52:22;;;;;;;9.77;9.47;;;24.40;50.00;;;;;;5052785;28;20444;-46
2022/04/27 07:54:49;;;;;;;10.83;10.43;;;24.40;49.90;;;;;;5052645;28;20786;-45
2022/04/27 07:57:15;;;;;;;9.87;9.57;;;24.50;49.90;;;;;;5052476;28;20449;-45
2022/04/27 07:59:42;;;;;;;11.37;10.97;;;24.50;49.80;;;;;;5052757;28;20952;-46
2022/04/27 08:02:09;;;;;;;9.97;9.77;;;24.50;49.70;;;;;;5052636;28;20488;-45
2022/04/27 08:04:35;;;;;;;10.40;10.00;;;24.50;49.60;;;;;;5052687;28;20453;-45
2022/04/27 08:07:04;;;;;;;11.23;10.83;;;24.60;49.60;;;;;;5052449;28;20455;-46
2022/04/27 08:09:31;;;;;;;10.70;10.20;;;24.60;49.50;;;;;;5052467;28;20789;-46
2022/04/27 08:11:57;;;;;;;10.03;9.63;;;24.60;49.50;;;;;;5052222;28;20445;-46
2022/04/27 08:14:24;;;;;;;11.20;10.60;;;24.60;49.40;;;;;;5052286;28;20930;-46
2022/04/27 08:16:51;;;;;;;10.00;9.70;;;24.60;49.40;;;;;;5052201;28;20475;-47
2022/04/27 08:19:20;;;;;;;9.20;9.00;;;24.70;49.40;;;;;;5052416;28;20448;-46
2022/04/27 08:21:48;;;;;;;10.60;10.23;;;24.60;49.30;;;;;;5052141;28;20538;-46
2022/04/27 08:24:19;;;;;;;10.83;10.43;;;24.70;49.30;;;;;;5052252;28;20452;-46
2022/04/27 08:26:45;;;;;;;10.30;9.90;;;24.70;49.40;;;;;;5051989;28;20503;-46
2022/04/27 08:29:12;;;;;;;9.93;9.63;;;24.70;49.30;;;;;;5052069;28;20453;-45
2022/04/27 08:31:40;;;;;;;10.43;9.93;;;24.60;49.30;;;;;;5052103;28;20781;-46
2022/04/27 08:34:07;;;;;;;10.63;10.13;;;24.60;49.20;;;;;;5052201;28;20539;-46
2022/04/27 08:36:34;;;;;;;10.03;9.63;;;24.60;49.30;;;;;;5051741;28;20464;-46
2022/04/27 08:39:01;;;;;;;9.57;9.27;;;24.60;49.80;;;;;;5051984;28;20794;-46
2022/04/27 08:41:29;;;;;;;10.67;10.27;;;24.60;49.30;;;;;;5051879;28;20444;-46
2022/04/27 08:43:56;;;;;;;9.70;9.30;;;24.60;49.30;;;;;;5051953;28;20444;-46
2022/04/27 08:46:24;;;;;;;9.20;8.90;;;24.60;49.30;;;;;;5051694;28;20799;-45
2022/04/27 08:48:51;;;;;;;10.47;10.10;;;24.50;49.30;;;;;;5051745;28;20506;-46
2022/04/27 08:51:18;;;;;;;9.87;9.57;;;24.50;49.30;;;;;;5051770;28;20444;-46
2022/04/27 08:53:45;;;;;;;10.57;10.20;;;24.50;49.40;;;;;;5051907;28;20449;-46
2022/04/27 08:56:13;;;;;;;9.93;9.63;;;24.50;49.40;;;;;;5051770;28;20463;-46
2022/04/27 08:58:41;;;;;;;10.77;10.47;;;24.50;49.40;;;;;;5051451;28;20456;-46
2022/04/27 09:01:08;;;;;;;10.93;10.47;;;24.40;49.40;;;;;;5051701;28;20455;-46
2022/04/27 09:03:37;;;;;;;11.33;11.03;;;24.40;49.40;;;;;;5051620;28;20479;-46
2022/04/27 09:06:05;;;;;;;12.07;11.67;;;24.30;49.40;;;;;;5051603;28;20546;-46
2022/04/27 09:08:40;;;;;;;11.00;10.70;;;24.30;49.50;;;;;;5051254;28;20440;-46
2022/04/27 09:11:14;;;;;;;11.07;10.73;;;24.30;49.60;;;;;;5051621;28;20519;-46
2022/04/27 09:13:46;;;;;;;11.17;10.57;;;24.30;49.60;;;;;;5051479;28;20436;-46
2022/04/27 09:16:14;;;;;;;11.10;10.70;;;24.30;49.60;;;;;;5051459;28;20525;-46
2022/04/27 09:21:32;;;;;;;11.67;11.23;;;24.30;49.50;;;;;;5051490;28;20936;-45
2022/04/27 09:24:04;;;;;;;11.23;10.90;;;24.40;49.50;;;;;;5051580;28;20541;-46
2022/04/27 09:26:31;;;;;;;10.90;10.60;;;24.50;49.50;;;;;;5055406;28;20467;-48
2022/04/27 09:28:59;;;;;;;10.40;10.00;;;24.50;49.30;;;;;;5055633;28;20941;-46
2022/04/27 09:31:28;;;;;;;10.03;9.83;;;24.50;49.20;;;;;;5055623;28;21119;-46
2022/04/27 09:34:02;;;;;;;11.50;11.20;;;24.60;49.10;;;;;;5055463;28;20451;-46
2022/04/27 09:36:29;;;;;;;10.70;10.40;;;24.60;49.00;;;;;;5055175;28;20981;-46
2022/04/27 09:38:57;;;;;;;10.60;10.20;;;24.70;48.90;;;;;;5055440;28;20816;-46
2022/04/27 09:41:38;;;;;;;9.80;9.50;;;24.70;48.90;;;;;;5055332;28;20522;-46
2022/04/27 09:44:06;;;;;;;9.43;9.07;;;24.70;48.80;;;;;;5055137;28;20490;-46
2022/04/27 09:46:40;;;;;;;10.07;9.77;;;24.70;48.70;;;;;;5054935;28;20500;-46
2022/04/27 09:49:11;;;;;;;10.07;9.77;;;24.70;48.60;;;;;;5055154;28;20495;-46
2022/04/27 09:51:46;;;;;;;9.30;9.10;;;24.80;48.70;;;;;;5055052;28;20949;-45
2022/04/27 09:54:17;;;;;;;8.93;8.73;;;24.70;48.60;;;;;;5055165;28;20474;-45
2022/04/27 09:56:47;;;;;;;9.70;9.40;;;24.70;48.60;;;;;;5054938;28;20832;-46
2022/04/27 09:59:16;;;;;;;9.57;9.17;;;24.70;48.50;;;;;;5054954;28;20795;-46
2022/04/27 10:01:44;;;;;;;9.77;9.47;;;24.70;48.50;;;;;;5055016;28;20511;-47
2022/04/27 10:04:12;;;;;;;9.90;9.60;;;24.70;49.00;;;;;;5054837;28;20507;-45
2022/04/27 10:06:39;;;;;;;10.20;9.90;;;24.70;48.50;;;;;;5054641;28;20468;-46
2022/04/27 10:09:06;;;;;;;10.03;9.73;;;24.70;48.50;;;;;;5054828;28;20451;-46
2022/04/27 10:11:34;;;;;;;9.83;9.63;;;24.70;48.50;;;;;;5054776;28;20459;-47
2022/04/27 10:14:01;;;;;;;10.17;9.87;;;24.70;48.50;;;;;;5054586;28;20447;-46
2022/04/27 10:16:29;;;;;;;10.93;10.63;;;24.70;48.50;;;;;;5054400;28;20463;-46
2022/04/27 10:18:56;;;;;;;10.20;9.90;;;24.70;48.50;;;;;;5054545;28;20455;-47
2022/04/27 10:21:43;;;;;;;10.27;9.97;;;24.60;48.50;;;;;;5054622;28;20455;-46
2022/04/27 10:24:10;;;;;;;10.07;9.83;;;24.60;48.50;;;;;;5054539;28;20492;-46
2022/04/27 10:26:38;;;;;;;10.47;10.17;;;24.60;48.50;;;;;;5054265;28;20475;-46
2022/04/27 10:29:05;;;;;;;10.07;9.77;;;24.60;48.60;;;;;;5054456;28;20575;-46
2022/04/27 10:32:05;;;;;;;10.70;10.40;;;24.50;48.60;;;;;;5054465;28;21003;-46
2022/04/27 10:34:33;;;;;;;10.20;10.00;;;24.50;48.70;;;;;;5051638;28;20964;-46
2022/04/27 10:37:01;;;;;;;10.20;9.90;;;24.50;48.70;;;;;;5053861;28;20790;-46
2022/04/27 10:39:28;;;;;;;9.70;9.40;;;24.50;48.80;;;;;;5054352;28;20444;-46
2022/04/27 10:42:25;;;;;;;10.10;9.90;;;24.40;48.80;;;;;;5054276;28;20819;-46
2022/04/27 10:45:09;;;;;;;10.73;10.43;;;24.40;48.80;;;;;;5054042;28;20432;-46
2022/04/27 10:47:43;;;;;;;9.93;9.73;;;24.40;48.90;;;;;;5053979;28;20444;-46
2022/04/27 10:50:29;;;;;;;10.10;9.70;;;24.40;48.90;;;;;;5054055;28;20447;-46
2022/04/27 10:52:56;;;;;;;9.90;9.70;;;24.40;48.90;;;;;;5054101;28;20812;-46
2022/04/27 10:55:45;;;;;;;11.13;10.70;;;24.40;48.80;;;;;;5053888;28;20826;-46
2022/04/27 10:58:14;;;;;;;9.80;9.50;;;24.50;48.80;;;;;;5053751;28;20853;-46
2022/04/27 11:01:25;;;;;;;10.10;9.60;;;24.50;48.70;;;;;;5054102;28;21006;-46
2022/04/27 11:04:08;;;;;;;9.57;9.37;;;24.60;48.70;;;;;;5053700;28;20491;-47
2022/04/27 11:07:02;;;;;;;9.77;9.57;;;24.60;48.60;;;;;;5053626;28;20564;-46
2022/04/27 11:09:44;;;;;;;10.47;10.17;;;24.60;48.50;;;;;;5053707;28;20444;-46
2022/04/27 11:12:12;;;;;;;10.17;9.87;;;24.70;48.60;;;;;;5053683;28;20440;-47
2022/04/27 11:14:40;;;;;;;10.20;9.90;;;24.70;48.40;;;;;;5053616;28;20452;-46
2022/04/27 11:17:07;;;;;;;9.60;9.40;;;24.70;48.40;;;;;;5053368;28;20451;-46
2022/04/27 11:19:39;;;;;;;9.73;9.53;;;24.80;48.40;;;;;;5053478;28;20440;-46
2022/04/27 11:22:11;;;;;;;9.73;9.53;;;24.80;48.30;;;;;;5053430;28;20488;-46
2022/04/27 11:24:38;;;;;;;9.50;9.20;;;24.80;48.30;;;;;;5053454;28;20440;-46
2022/04/27 11:27:06;;;;;;;10.67;10.27;;;24.90;48.30;;;;;;5053309;28;20463;-46
2022/04/27 11:29:34;;;;;;;11.00;10.50;;;24.90;48.20;;;;;;5053430;28;20460;-46
2022/04/27 11:32:05;;;;;;;10.83;10.53;;;24.90;48.20;;;;;;5053168;28;20459;-46
2022/04/27 11:34:31;;;;;;;10.27;10.03;;;24.90;48.20;;;;;;5053281;28;20948;-47
2022/04/27 11:37:14;;;;;;;10.17;9.97;;;24.90;48.10;;;;;;5052945;28;20468;-46
2022/04/27 11:39:41;;;;;;;9.40;9.20;;;24.90;48.10;;;;;;5053194;28;20445;-46
2022/04/27 11:42:11;;;;;;;9.43;9.23;;;24.90;48.10;;;;;;5053044;28;20452;-46
2022/04/27 11:44:38;;;;;;;9.90;9.70;;;24.90;48.10;;;;;;5052798;28;20506;-46
2022/04/27 11:47:05;;;;;;;9.60;9.40;;;24.90;48.10;;;;;;5052136;28;20447;-46
2022/04/27 11:49:32;;;;;;;10.33;10.03;;;24.90;48.10;;;;;;5052971;28;20950;-46
2022/04/27 11:52:00;;;;;;;10.53;10.23;;;24.90;48.10;;;;;;5052981;28;20821;-48
2022/04/27 11:54:28;;;;;;;10.20;9.90;;;24.90;48.10;;;;;;5052884;28;20444;-46
2022/04/27 11:56:56;;;;;;;9.83;9.63;;;24.90;48.10;;;;;;5052492;28;20471;-46
2022/04/27 11:59:24;;;;;;;10.73;10.43;;;24.90;48.20;;;;;;5052700;28;20448;-46
2022/04/27 12:01:54;;;;;;;10.60;10.30;;;24.90;48.20;;;;;;5052605;28;20531;-46
2022/04/27 12:04:21;;;;;;;10.40;10.20;;;24.90;48.30;;;;;;5052587;28;20490;-45
2022/04/27 12:06:48;;;;;;;10.67;10.37;;;24.80;48.20;;;;;;5052192;28;20471;-46
2022/04/27 12:09:19;;;;;;;10.33;10.13;;;24.80;48.30;;;;;;5052400;28;20452;-46
2022/04/27 12:11:46;;;;;;;10.67;10.37;;;24.80;48.30;;;;;;5052539;28;20922;-47
2022/04/27 12:14:13;;;;;;;11.13;10.83;;;24.90;48.40;;;;;;5052432;28;20498;-48
2022/04/27 12:16:43;;;;;;;10.20;9.90;;;24.90;48.40;;;;;;5052222;28;20472;-46
2022/04/27 12:19:10;;;;;;;9.90;9.60;;;24.90;48.30;;;;;;5052472;28;20821;-46
2022/04/27 12:21:37;;;;;;;9.73;9.53;;;25.00;48.30;;;;;;5052237;28;20444;-46
2022/04/27 12:24:16;;;;;;;9.33;9.13;;;25.00;48.20;;;;;;5052432;28;20488;-47
2022/04/27 12:26:44;;;;;;;9.60;9.40;;;25.00;48.20;;;;;;5052057;28;20471;-46
2022/04/27 12:29:11;;;;;;;9.57;9.30;;;25.10;48.10;;;;;;5052196;28;20445;-46
2022/04/27 12:31:38;;;;;;;9.30;9.10;;;25.10;48.00;;;;;;5052054;28;20449;-46
2022/04/27 12:37:29;;;;;;;9.43;9.13;;;25.10;48.00;;;;;;5052048;28;20857;-46
2022/04/27 12:39:40;;;;;;;9.80;9.60;;;25.20;47.80;;;;;;5032099;28;20433;-47
2022/04/27 12:42:10;;;;;;;10.50;10.10;;;25.30;47.80;;;;;;5032170;28;20449;-46
2022/04/27 12:44:40;;;;;;;10.80;10.50;;;25.40;47.70;;;;;;5031837;28;20488;-46
2022/04/27 12:47:09;;;;;;;10.90;10.60;;;25.50;47.70;;;;;;5032551;28;20448;-46
2022/04/27 12:49:37;;;;;;;10.10;9.90;;;25.50;47.50;;;;;;5032006;28;20450;-48
2022/04/27 12:52:18;;;;;;;10.20;9.90;;;25.60;47.50;;;;;;5032033;28;20533;-46
2022/04/27 12:54:46;;;;;;;10.90;10.60;;;25.60;47.40;;;;;;5031899;28;20495;-46
2022/04/27 12:57:15;;;;;;;11.10;10.70;;;25.70;47.40;;;;;;5031635;28;20818;-47
2022/04/27 12:59:54;;;;;;;10.00;9.80;;;25.70;47.40;;;;;;5031684;28;20452;-47
2022/04/27 13:02:21;;;;;;;10.10;9.90;;;25.70;47.40;;;;;;5031819;28;20446;-47
2022/04/27 13:04:48;;;;;;;10.70;10.40;;;25.70;47.30;;;;;;5031787;28;20592;-47
2022/04/27 13:07:15;;;;;;;10.13;9.93;;;25.70;47.30;;;;;;5031500;28;20934;-46